Time;durP1;ratioP1;P1;durP2;ratioP2;P2;SDS_P1;SDS_P2;PMS_P1;PMS_P2;Temp;Humidity;BMP_temperature;BMP_pressure;BME280_temperature;BME280_humidity;BME280_pressure;Samples;Min_cycle;Max_cycle;Signal;HPM_P1;HPM_P2
2021/04/09 00:02:35;;;;;;;6.63;4.33;;;2.20;99.90;;;0.69;100.00;100873.66;5024412;27;53114;-59
2021/04/09 00:06:10;;;;;;;6.47;4.27;;;2.20;99.90;;;0.56;100.00;100877.88;5042145;28;61187;-60
2021/04/09 00:09:22;;;;;;;5.37;4.03;;;2.10;99.90;;;0.46;100.00;100875.81;4958957;28;57658;-59
2021/04/09 00:12:34;;;;;;;9.90;4.50;;;2.00;99.90;;;0.53;100.00;100871.91;4960516;28;54083;-60
2021/04/09 00:15:46;;;;;;;7.17;4.90;;;2.00;99.90;;;0.42;100.00;100871.63;5043457;28;55926;-60
2021/04/09 00:19:25;;;;;;;6.17;4.73;;;1.90;99.90;;;0.36;100.00;100875.44;5044704;28;53153;-58
2021/04/09 00:22:51;;;;;;;5.90;4.30;;;1.90;99.90;;;0.33;100.00;100873.81;4980336;28;57471;-60
2021/04/09 00:26:02;;;;;;;6.47;4.17;;;1.80;99.90;;;0.27;100.00;100879.38;5043709;28;52375;-59
2021/04/09 00:29:14;;;;;;;9.50;4.60;;;1.70;99.90;;;0.37;100.00;100877.13;5044701;28;55441;-59
2021/04/09 00:32:26;;;;;;;5.53;3.87;;;1.70;99.90;;;0.36;100.00;100867.53;5023773;28;48066;-59
2021/04/09 00:35:38;;;;;;;6.97;4.43;;;1.70;99.90;;;0.29;100.00;100868.75;5033407;28;51975;-58
2021/04/09 00:38:50;;;;;;;7.60;4.80;;;1.70;99.90;;;0.19;100.00;100865.75;5045006;28;46891;-59
2021/04/09 00:42:03;;;;;;;5.10;3.90;;;1.60;99.90;;;0.25;100.00;100864.56;5044146;28;49801;-58
2021/04/09 00:45:15;;;;;;;5.40;3.90;;;1.60;99.90;;;0.23;100.00;100858.56;5024424;28;60139;-60
2021/04/09 00:48:28;;;;;;;7.70;4.10;;;1.60;99.90;;;0.19;100.00;100854.38;5025789;28;50959;-60
2021/04/09 00:51:39;;;;;;;5.73;4.20;;;1.50;99.90;;;0.11;100.00;100857.41;5040861;28;52170;-62
2021/04/09 00:54:51;;;;;;;7.50;4.30;;;1.50;99.90;;;0.17;100.00;100849.19;5041412;28;63168;-59
2021/04/09 00:58:02;;;;;;;7.13;4.50;;;1.50;99.90;;;0.24;100.00;100847.09;5044628;28;52142;-59
2021/04/09 01:01:13;;;;;;;6.70;3.97;;;1.50;99.90;;;0.18;100.00;100843.00;5025869;28;56827;-58
2021/04/09 01:04:26;;;;;;;6.50;4.33;;;1.50;99.90;;;0.17;100.00;100841.28;5025307;28;50695;-58
2021/04/09 01:07:37;;;;;;;7.00;4.43;;;1.40;99.90;;;0.14;100.00;100833.53;5022981;28;53114;-58
2021/04/09 01:10:48;;;;;;;9.27;4.33;;;1.40;99.90;;;0.17;100.00;100832.53;5023812;28;51487;-59
2021/04/09 01:14:12;;;;;;;5.63;4.20;;;1.40;99.90;;;0.12;100.00;100826.69;5023837;28;52848;-60
2021/04/09 01:17:30;;;;;;;7.90;4.83;;;1.40;99.90;;;0.03;100.00;100828.00;5026149;28;47806;-60
2021/04/09 01:21:03;;;;;;;5.57;4.00;;;1.40;99.90;;;-0.11;100.00;100819.94;5027539;28;56416;-59
2021/04/09 01:24:30;;;;;;;9.07;4.43;;;1.30;99.90;;;-0.17;100.00;100817.63;4960407;28;52997;-58
2021/04/09 01:28:13;;;;;;;6.50;4.63;;;1.20;99.90;;;-0.20;100.00;100815.16;5036716;28;54776;-59
2021/04/09 01:31:43;;;;;;;4.60;4.13;;;1.20;99.90;;;-0.25;100.00;100815.41;5042716;28;61182;-60
2021/04/09 01:35:01;;;;;;;6.63;4.20;;;1.10;99.90;;;-0.26;100.00;100797.06;5049516;28;48622;-60
2021/04/09 01:38:18;;;;;;;7.30;4.33;;;1.10;99.90;;;-0.25;100.00;100801.41;5048916;28;53430;-59
2021/04/09 01:41:32;;;;;;;9.23;4.50;;;1.00;99.90;;;-0.26;100.00;100794.44;5049085;28;51689;-59
2021/04/09 01:44:47;;;;;;;7.50;4.27;;;1.00;99.90;;;-0.22;100.00;100795.97;5050088;28;49589;-59
2021/04/09 01:48:00;;;;;;;5.07;3.40;;;1.00;99.90;;;-0.20;100.00;100784.44;5050682;28;42591;-59
2021/04/09 01:51:13;;;;;;;6.97;4.00;;;0.90;99.90;;;-0.31;100.00;100784.13;5046953;28;45636;-59
2021/04/09 01:58:12;;;;;;;6.70;4.20;;;0.90;99.90;;;-0.25;100.00;100769.84;5025879;28;47717;-59
2021/04/09 02:01:26;;;;;;;5.73;3.93;;;0.90;99.90;;;-0.34;100.00;100757.13;5029383;28;46635;-58
2021/04/09 02:04:38;;;;;;;5.30;3.67;;;0.90;99.90;;;-0.30;100.00;100756.06;5029081;28;51363;-59
2021/04/09 02:07:51;;;;;;;6.67;3.57;;;0.90;99.90;;;-0.37;100.00;100742.38;5045989;28;47499;-59
2021/04/09 02:11:04;;;;;;;5.30;3.33;;;0.90;99.90;;;-0.36;100.00;100752.81;5049387;28;48251;-59
2021/04/09 02:14:19;;;;;;;4.67;3.53;;;0.80;99.90;;;-0.57;100.00;100753.03;5046254;28;47117;-59
2021/04/09 02:17:37;;;;;;;4.93;3.57;;;0.90;99.90;;;-0.49;100.00;100749.09;5050618;28;43708;-58
2021/04/09 02:20:50;;;;;;;5.20;3.60;;;0.80;99.90;;;-0.40;100.00;100734.66;5050699;28;48227;-59
2021/04/09 02:24:04;;;;;;;8.00;4.23;;;0.80;99.90;;;-0.54;100.00;100742.38;5038192;28;46425;-57
2021/04/09 02:27:28;;;;;;;6.63;3.93;;;0.80;99.90;;;-0.43;100.00;100724.28;5027219;28;48950;-59
2021/04/09 02:31:02;;;;;;;5.93;3.83;;;0.80;99.90;;;-0.56;100.00;100733.72;5036847;28;54385;-59
2021/04/09 02:34:24;;;;;;;7.47;3.57;;;0.70;99.90;;;-0.51;100.00;100724.69;5044035;28;53412;-58
2021/04/09 02:41:06;;;;;;;7.93;4.20;;;0.70;99.90;;;-0.58;100.00;100722.41;4993112;28;53090;-59
2021/04/09 02:44:23;;;;;;;7.30;3.93;;;0.70;99.90;;;-0.60;100.00;100708.50;5029745;28;41533;-59
2021/04/09 02:50:59;;;;;;;4.30;3.77;;;0.60;99.90;;;-0.53;100.00;100707.28;5033584;28;45844;-58
2021/04/09 02:54:12;;;;;;;7.27;4.03;;;0.60;99.90;;;-0.58;100.00;100698.78;5047048;28;52479;-58
2021/04/09 02:57:27;;;;;;;4.63;3.97;;;0.60;99.90;;;-0.63;100.00;100695.53;5044139;28;40780;-59
2021/04/09 03:00:39;;;;;;;6.20;4.10;;;0.60;99.90;;;-0.56;100.00;100697.78;5047616;28;46667;-59
2021/04/09 03:03:51;;;;;;;5.03;4.03;;;0.60;99.90;;;-0.53;100.00;100686.25;5045087;28;49336;-59
2021/04/09 03:07:03;;;;;;;10.60;5.13;;;0.60;99.90;;;-0.74;100.00;100686.41;5048275;28;46268;-59
2021/04/09 03:10:16;;;;;;;9.00;4.43;;;0.60;99.90;;;-0.59;100.00;100686.56;5040677;28;45277;-58
2021/04/09 03:13:52;;;;;;;5.07;4.10;;;0.60;99.90;;;-0.63;100.00;100682.41;5027220;28;43322;-57
2021/04/09 03:17:10;;;;;;;8.37;4.20;;;0.60;99.90;;;-0.67;100.00;100684.31;5027983;28;43086;-60
2021/04/09 03:20:22;;;;;;;4.93;4.00;;;0.60;99.90;;;-0.67;100.00;100665.06;5024133;28;56016;-60
2021/04/09 03:23:33;;;;;;;6.00;4.27;;;0.60;99.90;;;-0.52;100.00;100664.31;5022407;28;52410;-59
2021/04/09 03:26:45;;;;;;;8.57;4.93;;;0.60;99.90;;;-0.60;100.00;100667.31;5023296;28;48451;-59
2021/04/09 03:29:56;;;;;;;6.03;4.30;;;0.70;99.90;;;-0.55;100.00;100661.81;5023172;28;46441;-59
2021/04/09 03:33:09;;;;;;;7.63;5.07;;;0.60;99.90;;;-0.50;100.00;100662.44;5023394;28;50680;-59
2021/04/09 03:36:21;;;;;;;8.60;6.27;;;0.70;99.90;;;-0.42;100.00;100658.50;5021412;28;48044;-60
2021/04/09 03:39:32;;;;;;;25.40;17.13;;;0.70;99.90;;;-0.40;100.00;100651.38;5024399;28;53189;-60
2021/04/09 03:42:43;;;;;;;8.53;6.70;;;0.70;99.90;;;-0.41;100.00;100661.97;5024453;28;47052;-60
2021/04/09 03:45:54;;;;;;;6.00;5.03;;;0.70;99.90;;;-0.31;100.00;100651.81;5023340;28;50412;-60
2021/04/09 03:49:06;;;;;;;7.73;5.17;;;0.80;99.90;;;-0.23;100.00;100649.63;5040767;28;50618;-60
2021/04/09 03:52:18;;;;;;;6.93;5.27;;;0.80;99.90;;;-0.43;100.00;100641.00;5041499;28;54977;-60
2021/04/09 03:55:31;;;;;;;6.73;5.20;;;0.90;99.90;;;-0.31;100.00;100633.41;5046030;28;46645;-60
2021/04/09 03:58:42;;;;;;;8.43;5.90;;;0.80;99.90;;;-0.30;100.00;100635.97;5045301;28;53498;-58
2021/04/09 04:01:53;;;;;;;8.83;5.27;;;0.90;99.90;;;-0.29;100.00;100639.44;5044484;28;54870;-59
2021/04/09 04:05:06;;;;;;;9.00;7.00;;;0.90;99.90;;;-0.20;100.00;100642.44;5024140;28;46721;-60
2021/04/09 04:08:17;;;;;;;8.63;5.73;;;0.90;99.90;;;-0.16;100.00;100629.97;5039905;28;54281;-60
2021/04/09 04:11:28;;;;;;;6.93;5.73;;;0.90;99.90;;;-0.25;100.00;100630.47;5038803;28;50653;-58
2021/04/09 04:14:39;;;;;;;12.17;6.83;;;0.90;99.90;;;-0.18;100.00;100621.31;5038714;28;56284;-60
2021/04/09 04:18:18;;;;;;;10.67;7.30;;;0.90;99.90;;;-0.15;100.00;100613.25;5022969;28;43109;-59
2021/04/09 04:21:40;;;;;;;8.97;6.03;;;1.00;99.90;;;-0.19;100.00;100615.19;4949852;28;52776;-60
2021/04/09 04:24:51;;;;;;;9.07;6.47;;;1.00;99.90;;;-0.20;100.00;100607.38;5042389;28;49599;-59
2021/04/09 04:28:02;;;;;;;9.63;6.77;;;1.00;99.90;;;-0.16;100.00;100603.66;5043957;28;52781;-58
2021/04/09 04:35:02;;;;;;;9.33;6.30;;;1.00;99.90;;;-0.22;100.00;100596.94;5024959;28;40151;-60
2021/04/09 04:38:14;;;;;;;7.77;6.00;;;1.00;99.90;;;-0.23;100.00;100599.66;5038808;28;48817;-60
2021/04/09 04:41:26;;;;;;;9.60;6.30;;;1.00;99.90;;;-0.17;100.00;100594.06;5044505;28;45016;-60
2021/04/09 04:44:37;;;;;;;10.53;5.97;;;1.00;99.90;;;-0.12;100.00;100597.28;5047210;28;52119;-59
2021/04/09 04:47:49;;;;;;;6.80;6.10;;;1.00;99.90;;;-0.01;100.00;100590.53;5047555;28;44895;-60
2021/04/09 04:51:00;;;;;;;10.90;6.70;;;1.10;99.90;;;-0.05;100.00;100591.63;5049865;27;44740;-59
2021/04/09 04:54:13;;;;;;;9.03;6.60;;;1.10;99.90;;;0.04;100.00;100586.78;5048847;28;51439;-60
2021/04/09 04:57:23;;;;;;;11.17;6.73;;;1.20;99.90;;;0.15;100.00;100576.53;5049788;28;48577;-58
2021/04/09 05:00:36;;;;;;;8.43;6.70;;;1.20;99.90;;;0.13;100.00;100575.75;5047938;28;43920;-59
2021/04/09 05:03:47;;;;;;;7.23;6.33;;;1.20;99.90;;;0.16;100.00;100578.22;5048251;28;47736;-60
2021/04/09 05:07:10;;;;;;;10.90;6.93;;;1.30;99.90;;;0.30;100.00;100579.16;5028494;28;51761;-60
2021/04/09 05:10:35;;;;;;;8.30;6.50;;;1.40;99.90;;;0.51;100.00;100577.09;5038703;28;51839;-60
2021/04/09 05:13:46;;;;;;;10.57;6.87;;;1.50;99.90;;;0.66;100.00;100581.47;5048058;28;50989;-59
2021/04/09 05:16:58;;;;;;;9.07;6.90;;;1.60;99.90;;;0.75;100.00;100576.59;5048540;28;50566;-59
2021/04/09 05:20:09;;;;;;;8.63;6.43;;;1.70;99.90;;;0.88;100.00;100575.81;5049454;28;44068;-60
2021/04/09 05:23:20;;;;;;;8.77;5.97;;;1.80;99.80;;;0.89;100.00;100566.13;5049826;28;41135;-58
2021/04/09 05:26:32;;;;;;;7.83;6.50;;;2.00;99.00;;;1.07;100.00;100580.84;5029343;28;42982;-60
2021/04/09 05:29:44;;;;;;;11.97;6.93;;;2.10;99.10;;;1.35;100.00;100578.28;5037302;28;48315;-59
2021/04/09 05:32:55;;;;;;;9.90;7.30;;;2.30;98.40;;;1.43;100.00;100575.16;5045482;28;45640;-60
2021/04/09 05:36:06;;;;;;;9.33;6.30;;;2.40;97.70;;;1.60;100.00;100576.78;5041584;28;50070;-60
2021/04/09 05:39:29;;;;;;;10.27;7.03;;;2.60;96.80;;;1.87;100.00;100572.41;5042704;28;52473;-60
2021/04/09 05:42:41;;;;;;;10.63;6.73;;;2.80;96.30;;;2.13;100.00;100570.78;5042784;28;47709;-60
2021/04/09 05:45:53;;;;;;;8.70;6.50;;;3.00;96.00;;;2.19;100.00;100566.91;5043759;28;48902;-60
2021/04/09 05:49:04;;;;;;;10.60;7.23;;;3.30;94.90;;;2.53;100.00;100567.25;5042839;28;46654;-60
2021/04/09 05:52:15;;;;;;;9.77;6.90;;;3.50;94.50;;;2.88;100.00;100566.72;5039840;28;51276;-59
2021/04/09 05:55:27;;;;;;;8.40;6.60;;;3.70;93.90;;;2.95;100.00;100557.44;5035063;28;49814;-61
2021/04/09 05:58:39;;;;;;;12.33;7.83;;;4.00;93.00;;;3.18;100.00;100555.91;5040949;28;47429;-59
2021/04/09 06:01:51;;;;;;;8.30;7.10;;;4.30;91.40;;;3.34;100.00;100547.75;5022748;28;50821;-58
2021/04/09 06:08:30;;;;;;;8.13;6.90;;;4.80;88.60;;;3.19;100.00;100547.00;5036177;28;48284;-60
2021/04/09 06:11:50;;;;;;;12.63;7.57;;;5.00;87.40;;;3.10;100.00;100547.63;5039082;28;52021;-61
2021/04/09 06:15:13;;;;;;;11.13;6.60;;;5.00;85.20;;;3.36;100.00;100533.44;5044477;28;47567;-61
2021/04/09 06:18:24;;;;;;;10.23;6.87;;;5.10;83.50;;;3.71;100.00;100544.22;5039015;28;45397;-59
2021/04/09 06:21:36;;;;;;;9.63;7.10;;;5.10;82.80;;;4.06;100.00;100539.06;5038333;28;43983;-61
2021/04/09 06:24:47;;;;;;;9.27;7.27;;;5.30;82.80;;;4.37;100.00;100540.31;5043480;28;47919;-58
2021/04/09 06:27:58;;;;;;;10.13;7.47;;;5.50;81.60;;;4.49;100.00;100541.22;5035457;28;50821;-61
2021/04/09 06:31:11;;;;;;;8.43;7.10;;;5.80;77.90;;;4.91;100.00;100534.53;5036444;28;36989;-60
2021/04/09 06:34:22;;;;;;;8.63;6.60;;;6.10;78.40;;;5.00;100.00;100525.88;5051352;28;43317;-60
2021/04/09 06:37:33;;;;;;;9.13;6.70;;;6.40;77.00;;;5.07;100.00;100525.28;5041300;28;45746;-60
2021/04/09 06:40:45;;;;;;;9.07;6.40;;;6.70;74.00;;;5.13;100.00;100523.13;5037881;28;42632;-61
2021/04/09 06:43:57;;;;;;;10.43;6.53;;;7.00;70.80;;;5.07;100.00;100527.94;5051350;28;43222;-61
2021/04/09 06:47:09;;;;;;;8.27;6.40;;;7.10;69.90;;;5.09;100.00;100521.66;5042169;28;37961;-58
2021/04/09 06:50:21;;;;;;;10.10;6.87;;;7.30;68.00;;;5.26;100.00;100523.88;5047773;28;39432;-59
2021/04/09 06:53:33;;;;;;;7.90;6.00;;;7.30;67.70;;;5.31;100.00;100517.28;5044195;28;38127;-60
2021/04/09 06:56:44;;;;;;;9.90;6.33;;;7.40;66.90;;;5.22;100.00;100509.16;5046454;28;34753;-59
2021/04/09 07:00:03;;;;;;;8.17;6.47;;;7.50;65.70;;;5.44;100.00;100513.66;5032565;28;38954;-60
2021/04/09 07:03:16;;;;;;;8.37;6.80;;;7.60;65.90;;;5.22;100.00;100503.84;5051629;28;38107;-60
2021/04/09 07:06:27;;;;;;;9.20;6.50;;;7.60;64.10;;;5.60;100.00;100500.84;5047051;28;34296;-60
2021/04/09 07:09:46;;;;;;;8.40;6.57;;;7.70;65.70;;;5.53;100.00;100510.28;5037279;28;38371;-60
2021/04/09 07:12:58;;;;;;;7.00;6.23;;;7.80;65.00;;;5.56;100.00;100489.66;5046770;28;36579;-58
2021/04/09 07:16:24;;;;;;;10.07;6.73;;;7.80;65.10;;;5.58;100.00;100495.66;5019079;28;36241;-59
2021/04/09 07:23:08;;;;;;;7.47;6.33;;;7.80;65.40;;;5.82;100.00;100498.16;5034795;28;32831;-60
2021/04/09 07:26:19;;;;;;;9.33;6.80;;;7.90;66.10;;;5.88;100.00;100487.09;5043928;28;30779;-59
2021/04/09 07:33:11;;;;;;;9.20;6.37;;;8.10;64.80;;;6.30;100.00;100471.31;5039196;28;36765;-61
2021/04/09 07:36:49;;;;;;;9.50;6.80;;;8.20;65.30;;;6.41;100.00;100473.91;5043233;28;38666;-60
2021/04/09 07:44:24;;;;;;;8.27;6.37;;;8.50;62.80;;;6.55;100.00;100475.44;4945856;28;36479;-59
2021/04/09 07:47:35;;;;;;;11.53;7.00;;;8.60;63.10;;;6.79;100.00;100466.25;4963233;28;33456;-61
2021/04/09 07:54:34;;;;;;;10.07;7.03;;;8.90;62.80;;;6.94;100.00;100473.88;4971757;28;32630;-60
2021/04/09 07:57:51;;;;;;;9.03;6.37;;;9.20;62.20;;;7.37;100.00;100463.06;5014319;28;34227;-59
2021/04/09 08:01:03;;;;;;;7.20;6.33;;;9.40;60.80;;;7.56;100.00;100465.78;5038875;28;36914;-60
2021/04/09 08:04:19;;;;;;;10.67;6.20;;;9.70;59.70;;;7.85;100.00;100457.91;5042041;28;36264;-60
2021/04/09 08:07:49;;;;;;;9.67;6.80;;;9.90;59.10;;;7.98;100.00;100465.66;5047858;28;31644;-60
2021/04/09 08:11:01;;;;;;;9.43;6.20;;;10.10;58.00;;;8.09;100.00;100449.53;5046783;28;42236;-60
2021/04/09 08:14:33;;;;;;;7.10;5.77;;;10.40;56.80;;;7.84;100.00;100456.22;5027496;28;31963;-61
2021/04/09 08:17:44;;;;;;;9.70;6.57;;;10.50;55.30;;;8.00;100.00;100450.38;5047056;28;33113;-61
2021/04/09 08:20:56;;;;;;;8.10;6.10;;;10.40;55.90;;;8.12;100.00;100451.94;5051831;28;30399;-60
2021/04/09 08:24:08;;;;;;;8.70;6.70;;;10.50;56.00;;;8.54;100.00;100444.53;5054332;27;25733;-59
2021/04/09 08:27:21;;;;;;;9.90;6.63;;;10.70;55.60;;;9.21;100.00;100455.09;5056749;28;27888;-61
2021/04/09 08:30:35;;;;;;;9.10;6.33;;;11.00;55.50;;;8.93;100.00;100454.16;5055289;28;28740;-60
2021/04/09 08:34:00;;;;;;;9.13;6.00;;;11.20;54.00;;;8.88;100.00;100447.59;5055802;28;21716;-60
2021/04/09 08:37:23;;;;;;;7.00;6.00;;;11.50;52.90;;;9.16;100.00;100435.13;5048244;28;29676;-61
2021/04/09 08:40:36;;;;;;;8.43;5.80;;;11.60;53.00;;;9.22;100.00;100437.25;5051903;28;25742;-61
2021/04/09 08:43:49;;;;;;;7.63;5.27;;;11.80;53.10;;;9.34;100.00;100438.75;5062767;28;28034;-61
2021/04/09 08:47:01;;;;;;;7.03;4.80;;;12.00;52.00;;;8.91;100.00;100432.13;5032253;28;24931;-60
2021/04/09 08:50:15;;;;;;;7.90;5.53;;;12.10;50.00;;;9.20;100.00;100418.69;5045849;28;22374;-61
2021/04/09 08:53:31;;;;;;;8.30;4.60;;;12.00;50.10;;;9.17;100.00;100431.47;5062734;28;24562;-60
2021/04/09 08:56:59;;;;;;;8.53;5.30;;;12.00;49.90;;;9.24;100.00;100419.25;5051039;28;22952;-60
2021/04/09 09:00:39;;;;;;;8.67;5.10;;;12.10;49.40;;;9.43;100.00;100421.81;5048184;28;25334;-60
2021/04/09 09:04:14;;;;;;;5.53;4.83;;;12.10;49.40;;;9.31;100.00;100410.50;5053074;28;21687;-61
2021/04/09 09:07:28;;;;;;;5.73;5.20;;;12.10;49.00;;;9.32;100.00;100417.53;5014488;28;23387;-61
2021/04/09 09:11:03;;;;;;;6.70;4.90;;;12.10;49.30;;;9.50;100.00;100414.09;5044952;28;30749;-60
2021/04/09 09:14:15;;;;;;;5.90;5.30;;;12.10;49.70;;;9.51;100.00;100408.59;5062605;28;22580;-61
2021/04/09 09:18:08;;;;;;;6.90;5.17;;;12.20;49.10;;;9.57;100.00;100401.81;5054237;28;20848;-60
2021/04/09 09:22:01;;;;;;;5.47;4.23;;;12.30;48.90;;;9.60;100.00;100404.19;4975516;28;21689;-61
2021/04/09 09:25:18;;;;;;;6.90;5.03;;;12.30;48.20;;;9.95;100.00;100387.34;4980263;28;20539;-60
2021/04/09 09:28:34;;;;;;;7.40;4.90;;;12.40;49.10;;;9.87;100.00;100377.44;5056781;28;20732;-61
2021/04/09 09:32:06;;;;;;;6.10;4.87;;;12.50;48.00;;;9.98;100.00;100384.38;5058940;28;20732;-61
2021/04/09 09:35:18;;;;;;;7.47;5.30;;;12.60;47.80;;;10.44;100.00;100383.31;5055961;27;20453;-61
2021/04/09 09:42:22;;;;;;;5.10;4.13;;;12.80;47.00;;;9.96;100.00;100373.00;5055441;28;20498;-61
2021/04/09 09:45:51;;;;;;;7.33;4.83;;;12.80;46.70;;;10.62;100.00;100376.13;5031148;28;20324;-61
2021/04/09 09:49:22;;;;;;;6.27;4.90;;;12.80;47.30;;;10.64;100.00;100359.88;5060207;28;20346;-61
2021/04/09 09:53:04;;;;;;;7.07;4.80;;;13.00;47.20;;;10.78;100.00;100365.50;5060769;28;20306;-61
2021/04/09 09:56:20;;;;;;;5.73;4.80;;;13.30;46.80;;;11.29;100.00;100352.22;5040903;28;20226;-61
2021/04/09 09:59:34;;;;;;;7.33;4.90;;;13.70;46.80;;;11.21;100.00;100352.19;5047254;28;20209;-61
2021/04/09 10:02:46;;;;;;;5.87;4.40;;;14.10;45.50;;;10.76;100.00;100348.75;5053954;28;20233;-60
2021/04/09 10:06:00;;;;;;;5.77;4.63;;;14.20;44.70;;;10.71;100.00;100339.53;5054827;28;20213;-61
2021/04/09 10:09:12;;;;;;;6.27;4.70;;;14.20;44.20;;;10.80;100.00;100338.59;5059411;28;20631;-60
2021/04/09 10:12:25;;;;;;;8.43;5.33;;;14.10;44.50;;;10.96;100.00;100338.69;5060515;28;20220;-62
2021/04/09 10:15:42;;;;;;;5.03;4.60;;;14.10;45.20;;;11.29;100.00;100328.13;5053405;28;20674;-61
2021/04/09 10:19:04;;;;;;;8.43;5.50;;;14.30;45.90;;;10.88;100.00;100330.59;5066980;28;20514;-60
2021/04/09 10:22:24;;;;;;;6.70;4.83;;;14.60;44.50;;;10.64;100.00;100320.59;5055113;28;21025;-61
2021/04/09 10:25:44;;;;;;;6.00;4.80;;;14.50;44.10;;;10.93;100.00;100314.91;5057875;28;20216;-60
2021/04/09 10:29:00;;;;;;;8.33;5.13;;;14.40;44.60;;;10.82;100.00;100312.50;5054336;28;20212;-62
2021/04/09 10:32:12;;;;;;;5.63;4.47;;;14.30;43.30;;;11.34;100.00;100313.25;5063099;28;20254;-61
2021/04/09 10:35:29;;;;;;;6.07;4.80;;;14.50;44.10;;;11.25;100.00;100305.34;5050966;28;20968;-61
2021/04/09 10:38:49;;;;;;;6.43;4.32;;;14.60;43.40;;;11.10;100.00;100305.13;5059417;28;20245;-62
2021/04/09 10:42:05;;;;;;;6.33;4.97;;;14.70;43.00;;;11.01;100.00;100304.22;5058258;28;20665;-61
2021/04/09 10:45:22;;;;;;;7.63;4.83;;;14.70;43.50;;;11.22;100.00;100305.66;5063226;28;20353;-61
2021/04/09 10:48:39;;;;;;;6.83;4.70;;;14.60;43.30;;;11.33;100.00;100286.63;5054302;27;20569;-60
2021/04/09 10:51:55;;;;;;;7.95;5.43;;;14.80;43.30;;;11.62;100.00;100287.00;5059417;28;20598;-61
2021/04/09 10:55:10;;;;;;;6.47;3.87;;;15.00;43.30;;;11.68;100.00;100278.31;5063687;28;20826;-61
2021/04/09 10:58:23;;;;;;;5.60;3.65;;;15.20;42.60;;;11.96;100.00;100286.94;5065801;28;20220;-62
2021/04/09 11:02:01;;;;;;;4.60;3.65;;;15.50;41.90;;;12.06;100.00;100271.50;5047554;28;21138;-60
2021/04/09 11:05:18;;;;;;;7.25;3.92;;;15.70;41.30;;;11.78;100.00;100270.16;4975837;28;21010;-61
2021/04/09 11:08:38;;;;;;;4.88;3.95;;;15.80;40.50;;;12.14;100.00;100270.66;5055727;28;20606;-61
2021/04/09 11:11:55;;;;;;;8.93;3.97;;;15.80;40.80;;;11.82;100.00;100274.19;5050309;28;20606;-61
2021/04/09 11:15:13;;;;;;;4.85;3.25;;;15.70;40.50;;;12.09;100.00;100265.81;5051196;28;20799;-61
2021/04/09 11:18:33;;;;;;;5.65;3.63;;;15.70;40.40;;;11.83;100.00;100260.63;5064489;28;20228;-62
2021/04/09 11:22:14;;;;;;;4.68;4.13;;;15.70;39.80;;;11.86;100.00;100270.19;5064343;28;20455;-62
2021/04/09 11:25:53;;;;;;;4.75;3.95;;;15.60;40.30;;;12.11;100.00;100249.56;5052934;28;20534;-62
2021/04/09 11:29:09;;;;;;;5.82;3.70;;;15.70;40.40;;;12.45;100.00;100246.66;4970775;28;20493;-62
2021/04/09 11:32:33;;;;;;;5.03;4.00;;;15.90;40.80;;;12.11;100.00;100244.19;5044772;28;20874;-61
2021/04/09 11:35:50;;;;;;;4.20;3.42;;;16.10;40.20;;;12.34;100.00;100230.91;5064815;28;20600;-62
2021/04/09 11:43:01;;;;;;;4.13;3.47;;;16.30;39.40;;;12.48;98.10;100231.06;4980627;28;20942;-61
2021/04/09 11:46:31;;;;;;;7.18;3.67;;;16.50;39.00;;;12.65;98.38;100223.78;5052095;28;20603;-61
2021/04/09 11:49:49;;;;;;;5.32;4.25;;;16.70;38.30;;;13.00;98.22;100217.06;5059386;28;20213;-60
2021/04/09 11:53:21;;;;;;;8.65;4.05;;;16.80;38.80;;;13.27;96.86;100216.63;5054294;28;20228;-62
2021/04/09 11:57:02;;;;;;;6.80;3.35;;;17.10;39.00;;;12.31;96.78;100216.00;5060770;28;20433;-61
2021/04/09 12:00:14;;;;;;;5.82;4.03;;;17.20;37.10;;;12.42;99.95;100215.63;5039846;28;20275;-62
2021/04/09 12:03:32;;;;;;;6.00;3.95;;;16.90;37.50;;;12.21;98.71;100210.81;5047193;28;20556;-62
2021/04/09 12:06:59;;;;;;;4.47;3.72;;;16.70;37.30;;;12.30;97.80;100213.47;5060945;28;20260;-61
2021/04/09 12:10:14;;;;;;;4.00;3.60;;;16.50;37.40;;;12.66;95.75;100206.66;5046460;28;20879;-60
2021/04/09 12:13:25;;;;;;;4.97;3.05;;;16.50;38.10;;;12.68;94.37;100187.69;5065829;28;20220;-62
2021/04/09 12:16:37;;;;;;;5.88;3.78;;;16.60;37.70;;;13.10;94.93;100198.91;5064223;28;20441;-61
2021/04/09 12:19:48;;;;;;;4.57;3.08;;;16.80;38.00;;;13.14;94.34;100192.19;5059479;28;20694;-62
2021/04/09 12:23:01;;;;;;;4.55;3.58;;;16.90;37.60;;;12.85;92.34;100184.78;5057920;28;20554;-61
2021/04/09 12:26:12;;;;;;;4.57;3.83;;;17.20;37.00;;;12.81;95.19;100188.81;5051229;28;20943;-60
2021/04/09 12:29:23;;;;;;;6.20;4.82;;;17.20;36.60;;;13.17;96.94;100181.09;5064157;28;21000;-62
2021/04/09 12:32:35;;;;;;;3.85;3.35;;;17.20;37.10;;;13.12;94.73;100182.59;5063516;28;20255;-61
2021/04/09 12:35:46;;;;;;;5.07;3.70;;;17.30;37.20;;;12.95;95.79;100160.38;5060019;28;20348;-62
2021/04/09 12:38:59;;;;;;;4.35;3.88;;;17.20;36.90;;;12.99;96.25;100179.66;5058476;28;20649;-62
2021/04/09 12:42:10;;;;;;;5.28;3.97;;;17.10;37.10;;;12.85;96.68;100174.03;5056905;28;20691;-60
2021/04/09 12:45:23;;;;;;;6.10;4.28;;;17.00;37.10;;;13.13;98.56;100178.91;5059378;28;20224;-62
2021/04/09 12:48:34;;;;;;;7.85;4.05;;;17.00;37.40;;;13.38;94.00;100158.94;5037098;28;20484;-62
2021/04/09 12:51:46;;;;;;;5.07;3.53;;;17.00;38.00;;;13.16;93.18;100163.31;5056907;28;20633;-61
2021/04/09 12:54:59;;;;;;;6.40;3.53;;;17.20;37.30;;;13.15;92.52;100161.63;5036442;28;20213;-61
2021/04/09 12:58:11;;;;;;;5.53;3.35;;;17.30;36.50;;;12.86;89.18;100153.34;5063297;28;20228;-62
2021/04/09 13:01:22;;;;;;;15.98;9.13;;;17.20;36.30;;;12.86;92.80;100151.50;5028850;28;20571;-62
2021/04/09 13:04:33;;;;;;;4.95;3.70;;;16.90;36.30;;;12.93;87.40;100148.97;5058957;28;20223;-61
2021/04/09 13:07:44;;;;;;;7.25;3.38;;;16.80;36.20;;;12.75;87.71;100156.44;5057995;28;20260;-61
2021/04/09 13:10:57;;;;;;;6.10;5.32;;;16.70;35.70;;;13.00;89.82;100149.09;5064594;28;20231;-62
2021/04/09 13:14:54;;;;;;;5.07;3.60;;;16.50;36.50;;;13.01;86.93;100148.91;5067324;28;20325;-62
2021/04/09 13:22:15;;;;;;;6.45;4.65;;;16.40;35.80;;;13.17;85.57;100139.97;4920663;28;20630;-62
2021/04/09 13:25:27;;;;;;;6.28;4.32;;;16.50;36.80;;;12.70;91.90;100132.81;5043879;28;20603;-62
2021/04/09 13:28:40;;;;;;;6.82;4.25;;;16.40;36.70;;;12.82;90.28;100126.03;5042715;28;20959;-62
2021/04/09 13:31:51;;;;;;;5.43;4.20;;;16.30;37.20;;;12.78;90.37;100123.88;5038785;28;20631;-61
2021/04/09 13:35:02;;;;;;;6.10;3.55;;;16.30;37.10;;;12.90;87.60;100128.69;5040352;28;20592;-61
2021/04/09 13:38:14;;;;;;;4.72;3.92;;;16.20;36.90;;;13.24;86.40;100112.19;5043072;28;20425;-62
2021/04/09 13:41:52;;;;;;;5.43;4.55;;;16.30;37.40;;;12.80;85.98;100120.00;5035976;28;20500;-62
2021/04/09 13:44:55;;;;;;;8.23;4.50;;;16.30;36.70;;;12.82;88.75;100118.00;4985449;28;20320;-61
2021/04/09 13:52:01;;;;;;;7.43;5.32;;;16.20;37.50;;;12.99;91.18;100123.25;4935478;28;20766;-61
2021/04/09 14:02:23;;;;;;;5.32;4.55;;;16.40;37.80;;;13.50;96.74;100097.53;5039657;28;20370;-61
2021/04/09 14:05:41;;;;;;;7.03;4.43;;;16.40;38.40;;;13.39;83.73;100088.06;5041469;28;21019;-61
2021/04/09 14:09:04;;;;;;;6.03;4.80;;;16.70;37.60;;;13.23;87.88;100090.88;5045917;28;20441;-60
2021/04/09 14:19:56;;;;;;;7.20;5.20;;;16.40;38.10;;;13.09;90.96;100080.91;5041020;28;20510;-61
2021/04/09 14:23:07;;;;;;;7.72;5.13;;;16.30;37.60;;;12.94;91.20;100099.63;5061485;27;20624;-61
2021/04/09 14:26:18;;;;;;;5.95;4.75;;;16.20;37.90;;;12.54;90.32;100109.56;5062812;28;20763;-62
2021/04/09 14:29:36;;;;;;;8.43;4.85;;;16.00;37.30;;;12.60;91.36;100102.69;5065414;28;20605;-61
2021/04/09 14:32:48;;;;;;;9.52;5.45;;;15.80;37.80;;;12.72;91.67;100105.81;5052269;28;20380;-59
2021/04/09 14:36:00;;;;;;;8.88;5.20;;;15.70;38.40;;;12.64;90.57;100103.16;5060095;28;20209;-61
2021/04/09 14:39:12;;;;;;;7.28;5.30;;;15.60;38.30;;;12.44;93.43;100100.06;5062896;28;20365;-61
2021/04/09 14:42:24;;;;;;;7.85;5.35;;;15.60;38.20;;;12.68;93.96;100112.53;5058698;28;20564;-61